Terminal Aerodrome Forecast
Issued by NWS Topeka, KS

Home | Current Version | Previous Version | Text Only | Print | Product List | Glossary Off
Versions: 1 2 3 4 5 6 7 8 9 10 11 12 13 14 15 16 17 18 19 20 21 22

720
FTUS43 KTOP 152335
TAFTOP
TAF
KTOP 152335Z 1600/1624 08006KT 4SM -RA BR OVC006
     FM160800 07005KT 2SM RA BR OVC004
     FM161700 VRB06KT 3SM BR VCSH OVC004=

USA.gov is the U.S. government's official web portal to all federal, state and local government web resources and services.